createdAt,value
2018-03-15T00:00:36.300Z,12.00
2018-03-15T00:03:04.572Z,11.63
2018-03-15T00:05:32.874Z,11.73
2018-03-15T00:08:00.668Z,11.80
2018-03-15T00:10:28.205Z,12.50
2018-03-15T00:12:55.717Z,11.83
2018-03-15T00:15:24.027Z,11.93
2018-03-15T00:17:51.808Z,11.50
2018-03-15T00:20:19.360Z,11.70
2018-03-15T00:22:46.877Z,11.70
2018-03-15T00:25:15.189Z,11.87
2018-03-15T00:27:42.713Z,10.83
2018-03-15T00:30:10.517Z,11.60
2018-03-15T00:32:38.029Z,12.50
2018-03-15T00:35:06.328Z,11.17
2018-03-15T00:37:34.108Z,11.77
2018-03-15T00:40:01.646Z,11.13
2018-03-15T00:42:29.156Z,10.20
2018-03-15T00:44:56.982Z,11.80
2018-03-15T00:47:24.505Z,10.70
2018-03-15T00:49:52.036Z,10.80
2018-03-15T00:52:19.556Z,10.77
2018-03-15T00:54:47.413Z,11.17
2018-03-15T00:57:14.925Z,10.07
2018-03-15T00:59:43.233Z,11.60
2018-03-15T01:02:10.741Z,12.63
2018-03-15T01:04:39.046Z,11.00
2018-03-15T01:07:06.835Z,12.27
2018-03-15T01:09:34.372Z,11.70
2018-03-15T01:12:01.891Z,11.10
2018-03-15T01:14:30.210Z,11.00
2018-03-15T01:16:57.985Z,10.80
2018-03-15T01:19:26.324Z,11.10
2018-03-15T01:21:53.847Z,11.00
2018-03-15T01:24:21.389Z,11.10
2018-03-15T01:26:49.141Z,10.63
2018-03-15T01:29:16.677Z,12.57
2018-03-15T01:31:44.185Z,11.70
2018-03-15T01:34:11.728Z,10.40
2018-03-15T01:36:39.353Z,11.20
2018-03-15T01:39:06.928Z,12.33
2018-03-15T01:41:34.676Z,11.60
2018-03-15T01:44:02.188Z,11.07
2018-03-15T01:46:30.488Z,10.60
2018-03-15T01:48:58.026Z,11.90
2018-03-15T01:51:26.326Z,9.73
2018-03-15T01:53:53.836Z,11.53
2018-03-15T01:56:22.140Z,10.00
2018-03-15T01:58:49.657Z,10.20
2018-03-15T02:01:17.189Z,9.40
2018-03-15T02:03:45.045Z,10.00
2018-03-15T02:06:12.590Z,10.53
2018-03-15T02:08:40.361Z,9.70
2018-03-15T02:11:07.945Z,10.70
2018-03-15T02:13:35.463Z,10.13
2018-03-15T02:16:03.004Z,9.73
2018-03-15T02:18:30.526Z,8.97
2018-03-15T02:20:59.065Z,9.60
2018-03-15T02:23:26.571Z,8.53
2018-03-15T02:25:54.868Z,9.27
2018-03-15T02:28:22.377Z,10.03
2018-03-15T02:30:49.922Z,8.70
2018-03-15T02:33:18.206Z,8.63
2018-03-15T02:35:45.761Z,9.47
2018-03-15T02:38:13.268Z,9.47
2018-03-15T02:40:40.840Z,8.37
2018-03-15T02:43:08.350Z,9.00
2018-03-15T02:45:36.663Z,9.20
2018-03-15T02:48:04.229Z,8.50
2018-03-15T02:50:31.764Z,8.50
2018-03-15T02:52:59.277Z,8.80
2018-03-15T02:55:26.809Z,8.80
2018-03-15T02:57:54.339Z,7.80
2018-03-15T03:00:21.869Z,9.00
2018-03-15T03:02:50.142Z,9.23
2018-03-15T03:05:18.458Z,9.03
2018-03-15T03:07:45.971Z,9.93
2018-03-15T03:10:14.273Z,6.43
2018-03-15T03:12:41.793Z,8.30
2018-03-15T03:15:10.103Z,7.30
2018-03-15T03:17:37.617Z,7.70
2018-03-15T03:20:05.166Z,8.27
2018-03-15T03:22:32.682Z,6.73
2018-03-15T03:25:00.216Z,7.00
2018-03-15T03:27:27.737Z,7.57
2018-03-15T03:29:55.574Z,7.27
2018-03-15T03:32:23.080Z,8.20
2018-03-15T03:34:51.395Z,8.93
2018-03-15T03:37:18.913Z,10.77
2018-03-15T03:39:47.537Z,8.90
2018-03-15T03:42:15.078Z,8.80
2018-03-15T03:44:42.617Z,10.23
2018-03-15T03:47:10.137Z,9.50
2018-03-15T03:49:37.969Z,9.50
2018-03-15T03:52:05.478Z,9.70
2018-03-15T03:54:33.788Z,10.10
2018-03-15T03:57:01.329Z,8.70
2018-03-15T03:59:28.858Z,9.13
2018-03-15T04:01:57.170Z,8.73
2018-03-15T04:04:24.679Z,9.63
2018-03-15T04:06:52.217Z,8.53
2018-03-15T04:09:19.725Z,9.17
2018-03-15T04:11:47.261Z,9.57
2018-03-15T04:14:15.546Z,9.70
2018-03-15T04:16:43.121Z,9.43
2018-03-15T04:19:10.636Z,9.70
2018-03-15T04:21:38.168Z,9.03
2018-03-15T04:24:05.697Z,9.10
2018-03-15T04:26:33.468Z,9.23
2018-03-15T04:29:01.235Z,9.10
2018-03-15T04:31:29.097Z,8.63
2018-03-15T04:33:56.856Z,8.73
2018-03-15T04:36:24.393Z,9.00
2018-03-15T04:38:51.961Z,8.57
2018-03-15T04:41:19.536Z,9.47
2018-03-15T04:43:47.177Z,8.10
2018-03-15T04:46:14.716Z,9.47
2018-03-15T04:48:42.232Z,8.73
2018-03-15T04:51:09.769Z,9.00
2018-03-15T04:53:37.304Z,9.30
2018-03-15T04:56:04.850Z,9.60
2018-03-15T04:58:32.403Z,8.00
2018-03-15T05:01:00.791Z,8.03
2018-03-15T05:03:28.322Z,8.83
2018-03-15T05:05:55.853Z,8.87
2018-03-15T05:08:23.361Z,8.93
2018-03-15T05:10:50.946Z,9.40
2018-03-15T05:13:18.474Z,7.60
2018-03-15T05:15:46.014Z,7.70
2018-03-15T05:18:13.576Z,9.60
2018-03-15T05:20:41.853Z,8.60
2018-03-15T05:23:09.364Z,9.13
2018-03-15T05:25:37.702Z,8.67
2018-03-15T05:28:05.212Z,8.40
2018-03-15T05:30:33.514Z,9.50
2018-03-15T05:33:01.045Z,9.27
2018-03-15T05:35:29.340Z,9.20
2018-03-15T05:37:57.230Z,8.37
2018-03-15T05:40:24.765Z,7.80
2018-03-15T05:42:52.543Z,9.30
2018-03-15T05:45:20.078Z,9.10
2018-03-15T05:47:47.585Z,8.00
2018-03-15T05:50:15.413Z,8.60
2018-03-15T05:52:42.937Z,9.20
2018-03-15T05:55:10.732Z,9.10
2018-03-15T05:57:38.248Z,8.00
2018-03-15T06:00:06.546Z,8.70
2018-03-15T06:02:34.078Z,8.33
2018-03-15T06:05:02.370Z,8.00
2018-03-15T06:07:29.952Z,7.93
2018-03-15T06:09:57.712Z,8.30
2018-03-15T06:12:25.258Z,9.40
2018-03-15T06:14:52.771Z,8.73
2018-03-15T06:17:21.306Z,9.17
2018-03-15T06:19:48.813Z,7.97
2018-03-15T06:22:17.112Z,8.60
2018-03-15T06:24:44.898Z,9.13
2018-03-15T06:27:12.438Z,9.20
2018-03-15T06:29:39.953Z,10.20
2018-03-15T06:32:08.314Z,9.67
2018-03-15T06:34:35.826Z,8.60
2018-03-15T06:37:03.871Z,8.30
2018-03-15T06:39:31.550Z,9.10
2018-03-15T06:41:59.202Z,8.70
2018-03-15T06:44:27.750Z,9.10
2018-03-15T06:46:57.763Z,8.73
2018-03-15T06:49:25.704Z,10.43
2018-03-15T06:51:53.249Z,9.93
2018-03-15T06:54:21.008Z,10.30
2018-03-15T06:56:48.868Z,10.07
2018-03-15T06:59:16.385Z,10.50
2018-03-15T07:01:44.680Z,9.90
2018-03-15T07:04:12.205Z,9.47
2018-03-15T07:06:40.499Z,9.30
2018-03-15T07:09:08.019Z,10.77
2018-03-15T07:11:35.562Z,10.17
2018-03-15T07:14:03.069Z,9.00
2018-03-15T07:16:30.857Z,9.80
2018-03-15T07:18:58.617Z,9.23
2018-03-15T07:21:26.166Z,9.90
2018-03-15T07:23:53.678Z,9.00
2018-03-15T07:26:21.981Z,9.20
2018-03-15T07:28:49.498Z,8.93
2018-03-15T07:31:17.050Z,9.17
2018-03-15T07:33:44.575Z,8.70
2018-03-15T07:36:12.118Z,9.33
2018-03-15T07:38:39.893Z,8.80
2018-03-15T07:41:08.192Z,10.13
2018-03-15T07:43:35.711Z,10.10
2018-03-15T07:46:03.248Z,10.37
2018-03-15T07:48:30.770Z,9.10
2018-03-15T07:50:58.314Z,10.33
2018-03-15T07:53:25.829Z,9.33
2018-03-15T07:55:53.369Z,9.47
2018-03-15T07:58:20.898Z,9.83
2018-03-15T08:00:48.452Z,9.80
2018-03-15T08:03:16.276Z,9.00
2018-03-15T08:05:43.819Z,9.27
2018-03-15T08:08:11.324Z,9.33
2018-03-15T08:10:38.862Z,8.00
2018-03-15T08:13:06.364Z,7.63
2018-03-15T08:15:34.650Z,7.53
2018-03-15T08:18:02.224Z,7.50
2018-03-15T08:20:29.742Z,7.13
2018-03-15T08:22:58.371Z,7.30
2018-03-15T08:25:25.896Z,8.60
2018-03-15T08:27:53.430Z,6.70
2018-03-15T08:30:21.710Z,6.87
2018-03-15T08:32:50.025Z,7.30
2018-03-15T08:35:17.536Z,7.33
2018-03-15T08:37:45.832Z,6.80
2018-03-15T08:40:13.629Z,8.20
2018-03-15T08:42:41.168Z,7.33
2018-03-15T08:45:08.693Z,7.30
2018-03-15T08:47:36.988Z,6.93
2018-03-15T08:50:04.772Z,6.47
2018-03-15T08:52:32.312Z,6.60
2018-03-15T08:55:00.089Z,6.50
2018-03-15T08:57:27.625Z,7.10
2018-03-15T08:59:55.159Z,6.90
2018-03-15T09:02:23.466Z,5.80
2018-03-15T09:07:42.338Z,7.30
2018-03-15T09:10:09.871Z,7.03
2018-03-15T09:12:37.769Z,6.83
2018-03-15T09:15:05.285Z,13.90
2018-03-15T09:17:33.604Z,6.60
2018-03-15T09:20:01.149Z,6.53
2018-03-15T09:22:28.653Z,6.20
2018-03-15T09:24:56.220Z,6.93
2018-03-15T09:27:24.497Z,6.53
2018-03-15T09:29:52.776Z,5.93
2018-03-15T09:32:20.338Z,6.70
2018-03-15T09:34:47.856Z,6.27
2018-03-15T09:37:15.421Z,5.90
2018-03-15T09:39:43.717Z,5.77
2018-03-15T09:42:11.305Z,5.87
2018-03-15T09:44:38.863Z,6.67
2018-03-15T09:47:06.437Z,6.10
2018-03-15T09:49:33.961Z,6.47
2018-03-15T09:52:02.340Z,5.93
2018-03-15T09:54:30.080Z,6.10
2018-03-15T09:56:57.629Z,6.47
2018-03-15T09:59:25.926Z,6.40
2018-03-15T10:01:53.473Z,6.90
2018-03-15T10:04:21.005Z,5.63
2018-03-15T10:06:49.312Z,6.27
2018-03-15T10:09:16.844Z,6.43
2018-03-15T10:11:44.405Z,6.47
2018-03-15T10:14:11.934Z,6.50
2018-03-15T10:19:30.889Z,29.87
2018-03-15T10:21:58.452Z,12.40
2018-03-15T10:24:25.976Z,8.27
2018-03-15T10:26:53.542Z,11.70
2018-03-15T10:29:21.317Z,7.43
2018-03-15T10:31:48.869Z,6.50
2018-03-15T10:34:16.412Z,5.40
2018-03-15T10:36:43.953Z,7.03
2018-03-15T10:39:11.486Z,4.93
2018-03-15T10:41:39.801Z,6.63
2018-03-15T10:44:07.332Z,5.43
2018-03-15T10:46:34.892Z,5.37
2018-03-15T10:49:02.416Z,5.23
2018-03-15T10:51:30.733Z,5.77
2018-03-15T10:53:58.239Z,5.13
2018-03-15T10:56:25.795Z,5.23
2018-03-15T10:58:54.090Z,5.33
2018-03-15T11:01:22.610Z,5.57
2018-03-15T11:03:50.129Z,5.20
2018-03-15T11:06:23.361Z,6.03
2018-03-15T11:08:56.560Z,5.90
2018-03-15T11:11:24.124Z,5.90
2018-03-15T11:13:51.644Z,5.03
2018-03-15T11:16:19.164Z,5.80
2018-03-15T11:18:47.489Z,5.47
2018-03-15T11:21:15.013Z,6.03
2018-03-15T11:23:42.598Z,6.33
2018-03-15T11:26:10.109Z,5.03
2018-03-15T11:28:38.429Z,5.90
2018-03-15T11:31:05.968Z,5.80
2018-03-15T11:33:33.517Z,5.50
2018-03-15T11:36:01.047Z,5.47
2018-03-15T11:38:29.378Z,5.07
2018-03-15T11:40:56.911Z,5.40
2018-03-15T11:43:24.464Z,5.10
2018-03-15T11:45:51.995Z,5.00
2018-03-15T11:48:20.640Z,5.10
2018-03-15T11:50:48.165Z,5.10
2018-03-15T11:53:15.714Z,4.40
2018-03-15T11:55:43.245Z,5.60
2018-03-15T11:58:11.556Z,4.80
2018-03-15T12:00:39.138Z,4.80
2018-03-15T12:03:07.493Z,5.73
2018-03-15T12:05:35.012Z,5.13
2018-03-15T12:08:03.318Z,4.17
2018-03-15T12:10:30.841Z,5.20
2018-03-15T12:12:59.160Z,5.63
2018-03-15T12:15:26.684Z,5.63
2018-03-15T12:17:54.236Z,4.53
2018-03-15T12:20:22.509Z,5.80
2018-03-15T12:22:50.047Z,5.90
2018-03-15T12:25:17.547Z,4.80
2018-03-15T12:27:45.317Z,5.47
2018-03-15T12:30:12.825Z,5.07
2018-03-15T12:32:40.365Z,5.90
2018-03-15T12:35:07.871Z,5.63
2018-03-15T12:37:35.396Z,5.17
2018-03-15T12:40:03.684Z,5.03
2018-03-15T12:42:31.989Z,4.93
2018-03-15T12:44:59.495Z,6.60
2018-03-15T12:47:27.028Z,8.10
2018-03-15T12:49:55.309Z,4.80
2018-03-15T12:52:22.840Z,5.20
2018-03-15T12:54:50.358Z,4.80
2018-03-15T12:57:18.676Z,4.73
2018-03-15T12:59:46.184Z,5.77
2018-03-15T13:02:14.484Z,5.10
2018-03-15T13:04:41.995Z,4.27
2018-03-15T13:07:09.529Z,4.60
2018-03-15T13:09:37.036Z,4.80
2018-03-15T13:12:05.565Z,4.40
2018-03-15T13:14:33.072Z,5.40
2018-03-15T13:17:01.378Z,4.80
2018-03-15T13:19:28.885Z,4.47
2018-03-15T13:21:56.392Z,4.17
2018-03-15T13:24:23.975Z,4.07
2018-03-15T13:26:51.480Z,5.30
2018-03-15T13:29:19.004Z,4.90
2018-03-15T13:31:46.507Z,4.67
2018-03-15T13:34:14.032Z,4.70
2018-03-15T13:36:42.312Z,4.27
2018-03-15T13:39:10.663Z,5.33
2018-03-15T13:41:38.140Z,4.53
2018-03-15T13:44:06.441Z,4.20
2018-03-15T13:46:33.957Z,5.03
2018-03-15T13:49:01.493Z,4.80
2018-03-15T13:51:29.334Z,4.40
2018-03-15T13:53:56.872Z,4.60
2018-03-15T13:56:24.389Z,5.50
2018-03-15T13:58:52.707Z,4.30
2018-03-15T14:01:20.222Z,4.90
2018-03-15T14:03:47.753Z,4.70
2018-03-15T14:06:15.265Z,5.37
2018-03-15T14:08:42.813Z,5.27
2018-03-15T14:11:10.316Z,5.70
2018-03-15T14:13:37.850Z,4.43
2018-03-15T14:16:05.357Z,4.50
2018-03-15T14:18:32.892Z,4.33
2018-03-15T14:21:00.401Z,4.97
2018-03-15T14:23:27.937Z,4.60
2018-03-15T14:25:56.209Z,4.10
2018-03-15T14:28:24.508Z,4.63
2018-03-15T14:30:52.018Z,4.10
2018-03-15T14:33:19.552Z,3.80
2018-03-15T14:35:47.064Z,5.07
2018-03-15T14:38:14.601Z,4.50
2018-03-15T14:40:42.900Z,4.23
2018-03-15T14:43:10.449Z,4.50
2018-03-15T14:45:37.960Z,4.30
2018-03-15T14:48:05.493Z,5.53
2018-03-15T14:50:33.256Z,4.30
2018-03-15T14:53:00.792Z,4.47
2018-03-15T14:55:28.300Z,4.60
2018-03-15T14:57:55.867Z,4.83
2018-03-15T15:00:23.349Z,3.80
2018-03-15T15:02:50.925Z,4.43
2018-03-15T15:05:18.452Z,4.13
2018-03-15T15:07:46.764Z,4.60
2018-03-15T15:10:14.290Z,5.00
2018-03-15T15:12:41.832Z,5.27
2018-03-15T15:15:10.361Z,4.77
2018-03-15T15:17:37.907Z,4.30
2018-03-15T15:20:05.424Z,4.70
2018-03-15T15:22:33.716Z,4.13
2018-03-15T15:25:01.225Z,4.73
2018-03-15T15:27:28.793Z,4.47
2018-03-15T15:29:56.309Z,4.40
2018-03-15T15:32:23.817Z,4.83
2018-03-15T15:34:51.367Z,4.83
2018-03-15T15:37:18.894Z,4.30
2018-03-15T15:39:46.420Z,4.53
2018-03-15T15:42:13.987Z,4.67
2018-03-15T15:44:41.524Z,4.97
2018-03-15T15:47:09.033Z,4.20
2018-03-15T15:49:36.565Z,4.00
2018-03-15T15:52:04.098Z,4.30
2018-03-15T15:54:31.632Z,3.90
2018-03-15T15:56:59.912Z,4.20
2018-03-15T15:59:27.466Z,3.57
2018-03-15T16:01:55.985Z,4.00
2018-03-15T16:04:23.513Z,4.87
2018-03-15T16:06:51.091Z,4.40
2018-03-15T16:09:18.624Z,3.90
2018-03-15T16:11:46.140Z,4.40
2018-03-15T16:14:13.725Z,4.60
2018-03-15T16:16:42.004Z,3.77
2018-03-15T16:19:10.389Z,3.70
2018-03-15T16:21:37.940Z,4.00
2018-03-15T16:24:05.453Z,3.30
2018-03-15T16:26:32.964Z,4.03
2018-03-15T16:29:00.492Z,4.10
2018-03-15T16:31:28.760Z,4.03
2018-03-15T16:33:56.293Z,4.73
2018-03-15T16:36:23.801Z,3.80
2018-03-15T16:38:51.328Z,4.10
2018-03-15T16:41:18.837Z,4.37
2018-03-15T16:43:46.378Z,5.03
2018-03-15T16:46:13.896Z,4.73
2018-03-15T16:48:41.429Z,4.07
2018-03-15T16:51:08.990Z,5.37
2018-03-15T16:53:36.489Z,5.67
2018-03-15T16:56:04.012Z,6.60
2018-03-15T16:58:31.535Z,4.43
2018-03-15T17:00:59.058Z,4.70
2018-03-15T17:03:26.592Z,5.20
2018-03-15T17:05:54.884Z,5.00
2018-03-15T17:08:23.181Z,5.00
2018-03-15T17:10:50.688Z,5.53
2018-03-15T17:13:18.233Z,5.57
2018-03-15T17:15:45.749Z,5.73
2018-03-15T17:18:13.291Z,6.10
2018-03-15T17:20:40.805Z,6.00
2018-03-15T17:23:08.331Z,6.00
2018-03-15T17:25:35.837Z,5.30
2018-03-15T17:28:04.150Z,5.83
2018-03-15T17:30:31.653Z,5.80
2018-03-15T17:32:59.165Z,6.43
2018-03-15T17:35:26.700Z,7.40
2018-03-15T17:37:54.205Z,6.67
2018-03-15T17:40:21.829Z,7.57
2018-03-15T17:42:49.347Z,7.97
2018-03-15T17:45:17.665Z,7.23
2018-03-15T17:47:45.188Z,5.60
2018-03-15T17:50:13.601Z,5.80
2018-03-15T17:52:41.112Z,5.37
2018-03-15T17:55:09.413Z,5.97
2018-03-15T17:57:36.925Z,6.40
2018-03-15T18:00:04.451Z,6.00
2018-03-15T18:02:31.952Z,6.40
2018-03-15T18:05:00.256Z,6.93
2018-03-15T18:07:27.776Z,5.80
2018-03-15T18:09:55.313Z,6.63
2018-03-15T18:12:22.828Z,6.60
2018-03-15T18:14:50.373Z,5.87
2018-03-15T18:17:17.883Z,6.10
2018-03-15T18:19:45.724Z,6.80
2018-03-15T18:22:13.232Z,6.60
2018-03-15T18:24:40.788Z,6.60
2018-03-15T18:27:09.063Z,6.53
2018-03-15T18:29:37.384Z,7.30
2018-03-15T18:32:05.661Z,6.37
2018-03-15T18:34:33.203Z,6.90
2018-03-15T18:37:00.712Z,7.53
2018-03-15T18:39:29.021Z,8.30
2018-03-15T18:41:56.896Z,10.27
2018-03-15T18:44:24.471Z,10.00
2018-03-15T18:46:51.988Z,9.63
2018-03-15T18:49:19.527Z,9.60
2018-03-15T18:51:47.805Z,9.40
2018-03-15T18:54:16.103Z,9.77
2018-03-15T18:56:43.709Z,9.20
2018-03-15T18:59:11.245Z,8.13
2018-03-15T19:01:38.761Z,8.70
2018-03-15T19:04:06.292Z,8.13
2018-03-15T19:06:33.845Z,8.90
2018-03-15T19:09:01.382Z,9.37
2018-03-15T19:11:28.908Z,8.80
2018-03-15T19:13:56.441Z,9.57
2018-03-15T19:16:24.758Z,9.50
2018-03-15T19:18:52.288Z,8.00
2018-03-15T19:21:19.805Z,7.53
2018-03-15T19:23:47.334Z,7.53
2018-03-15T19:26:14.842Z,7.00
2018-03-15T19:28:42.378Z,7.90
2018-03-15T19:31:10.696Z,8.37
2018-03-15T19:33:38.226Z,8.40
2018-03-15T19:36:05.729Z,7.80
2018-03-15T19:38:33.276Z,8.90
2018-03-15T19:41:00.801Z,8.50
2018-03-15T19:43:28.592Z,8.00
2018-03-15T19:45:56.139Z,8.17
2018-03-15T19:48:23.673Z,8.20
2018-03-15T19:50:52.000Z,8.60
2018-03-15T19:53:19.504Z,8.83
2018-03-15T19:55:47.045Z,9.37
2018-03-15T19:58:15.337Z,9.00
2018-03-15T20:00:42.869Z,9.13
2018-03-15T20:03:11.137Z,8.60
2018-03-15T20:05:38.670Z,9.60
2018-03-15T20:08:06.180Z,10.30
2018-03-15T20:10:33.708Z,8.30
2018-03-15T20:13:01.982Z,8.33
2018-03-15T20:18:23.969Z,8.80
2018-03-15T20:20:51.499Z,9.23
2018-03-15T20:23:25.460Z,8.87
2018-03-15T20:25:52.993Z,8.47
2018-03-15T20:28:26.126Z,8.23
2018-03-15T20:30:53.664Z,8.17
2018-03-15T20:33:26.991Z,8.67
2018-03-15T20:35:54.485Z,9.10
2018-03-15T20:38:21.997Z,9.20
2018-03-15T20:40:56.183Z,9.07
2018-03-15T20:43:23.658Z,8.40
2018-03-15T20:45:57.584Z,9.50
2018-03-15T20:48:31.075Z,8.53
2018-03-15T20:50:59.016Z,9.20
2018-03-15T20:53:27.803Z,8.77
2018-03-15T20:55:56.817Z,9.50
2018-03-15T20:58:24.395Z,9.13
2018-03-15T21:00:52.269Z,11.00
2018-03-15T21:03:20.700Z,9.30
2018-03-15T21:05:49.481Z,11.47
2018-03-15T21:08:17.056Z,10.60
2018-03-15T21:10:45.385Z,8.00
2018-03-15T21:13:12.892Z,8.37
2018-03-15T21:15:41.189Z,9.47
2018-03-15T21:18:08.697Z,9.93
2018-03-15T21:20:36.241Z,8.70
2018-03-15T21:23:03.784Z,8.73
2018-03-15T21:25:31.292Z,9.50
2018-03-15T21:27:58.816Z,9.57
2018-03-15T21:30:26.354Z,8.37
2018-03-15T21:32:53.864Z,8.60
2018-03-15T21:35:21.530Z,10.37
2018-03-15T21:37:49.039Z,8.50
2018-03-15T21:40:17.812Z,8.40
2018-03-15T21:42:45.317Z,8.97
2018-03-15T21:45:12.864Z,8.80
2018-03-15T21:47:41.141Z,9.53
2018-03-15T21:50:09.446Z,9.70
2018-03-15T21:52:36.960Z,9.50
2018-03-15T21:55:05.256Z,10.10
2018-03-15T21:57:32.780Z,9.90
2018-03-15T22:00:00.311Z,10.30
2018-03-15T22:02:27.837Z,10.50
2018-03-15T22:04:55.380Z,10.60
2018-03-15T22:07:22.897Z,10.20
2018-03-15T22:09:50.977Z,10.67
2018-03-15T22:12:19.512Z,9.80
2018-03-15T22:14:47.040Z,11.40
2018-03-15T22:17:14.582Z,11.30
2018-03-15T22:19:42.856Z,11.00
2018-03-15T22:22:11.168Z,11.67
2018-03-15T22:24:38.677Z,10.60
2018-03-15T22:27:06.997Z,11.70
2018-03-15T22:29:34.510Z,10.63
2018-03-15T22:32:02.814Z,10.93
2018-03-15T22:34:30.333Z,9.87
2018-03-15T22:36:57.912Z,10.60
2018-03-15T22:39:25.516Z,10.47
2018-03-15T22:41:53.040Z,11.03
2018-03-15T22:44:20.580Z,11.00
2018-03-15T22:46:49.202Z,10.40
2018-03-15T22:49:16.716Z,9.90
2018-03-15T22:51:45.038Z,11.07
2018-03-15T22:54:12.545Z,10.33
2018-03-15T22:56:40.840Z,10.30
2018-03-15T22:59:08.479Z,10.87
2018-03-15T23:01:36.027Z,11.07
2018-03-15T23:04:04.328Z,10.47
2018-03-15T23:06:31.869Z,10.33
2018-03-15T23:08:59.380Z,10.20
2018-03-15T23:11:26.916Z,11.13
2018-03-15T23:13:54.424Z,10.40
2018-03-15T23:16:22.729Z,10.57
2018-03-15T23:18:50.246Z,10.20
2018-03-15T23:21:17.784Z,11.13
2018-03-15T23:23:45.299Z,10.80
2018-03-15T23:26:12.845Z,10.57
2018-03-15T23:28:40.360Z,11.40
2018-03-15T23:31:07.951Z,10.67
2018-03-15T23:33:35.417Z,12.00
2018-03-15T23:36:02.975Z,11.03
2018-03-15T23:38:30.545Z,12.77
2018-03-15T23:40:58.076Z,11.07
2018-03-15T23:43:25.592Z,10.73
2018-03-15T23:45:53.122Z,11.83
2018-03-15T23:48:20.647Z,11.60
2018-03-15T23:50:48.180Z,10.80
2018-03-15T23:53:16.001Z,10.60
2018-03-15T23:55:43.552Z,10.53
2018-03-15T23:58:11.056Z,10.80
